Terminal Aerodrome Forecast
Issued by NWS Pueblo, CO

Home | Current Version | Previous Version | Text Only | Print | Product List | Glossary On
Versions: 1 2 3 4 5 6 7 8 9 10 11 12 13 14 15 16 17 18 19 20 21 22 23 24
000
FTUS45 KPUB 241143
TAFPUB
TAF
KPUB 241143Z 2412/2512 VRB05KT P6SM FEW120 SCT200
     FM242200 10010KT P6SM VCTS SCT080CB BKN120
     FM250600 VRB06KT P6SM SCT080 BKN100=

USA.gov is the U.S. government's official web portal to all federal, state and local government web resources and services.